Time;durP1;ratioP1;P1;durP2;ratioP2;P2;SDS_P1;SDS_P2;PMS_P1;PMS_P2;Temp;Humidity;BMP_temperature;BMP_pressure;BME280_temperature;BME280_humidity;BME280_pressure;Samples;Min_cycle;Max_cycle;Signal;HPM_P1;HPM_P2
2022/01/09 00:02:44;;;;;;;;;;;20.80;42.70;;;;;;6304090;28;20797;-43
2022/01/09 00:05:46;;;;;;;;;;;20.60;42.50;;;;;;6295179;28;19923;-43
2022/01/09 00:08:47;;;;;;;;;;;20.70;42.60;;;;;;6309698;28;19990;-42
2022/01/09 00:11:49;;;;;;;;;;;20.70;42.70;;;;;;6308290;28;20031;-40
2022/01/09 00:14:51;;;;;;;;;;;20.90;42.70;;;;;;6309827;28;20903;-43
2022/01/09 00:17:52;;;;;;;;;;;20.90;42.60;;;;;;6309611;28;20878;-42
2022/01/09 00:20:54;;;;;;;;;;;20.50;42.50;;;;;;6308016;28;20810;-43
2022/01/09 00:23:56;;;;;;;;;;;20.60;42.50;;;;;;6309208;28;21484;-43
2022/01/09 00:26:58;;;;;;;;;;;21.10;42.70;;;;;;6311702;28;20078;-42
2022/01/09 00:29:59;;;;;;;;;;;20.80;42.60;;;;;;6318744;28;20674;-44
2022/01/09 00:33:01;;;;;;;;;;;20.60;42.50;;;;;;6301797;28;19927;-42
2022/01/09 00:36:02;;;;;;;;;;;20.60;42.50;;;;;;6309961;27;19996;-42
2022/01/09 00:39:05;;;;;;;;;;;20.80;42.60;;;;;;6313671;28;19924;-44
2022/01/09 00:42:07;;;;;;;;;;;20.90;42.50;;;;;;6316288;28;20785;-44
2022/01/09 00:45:09;;;;;;;;;;;21.00;42.70;;;;;;6295843;28;19973;-41
2022/01/09 00:48:11;;;;;;;;;;;21.10;42.70;;;;;;6315106;28;19923;-43
2022/01/09 00:51:12;;;;;;;;;;;20.70;42.60;;;;;;6312741;28;20042;-41
2022/01/09 00:54:13;;;;;;;;;;;20.90;42.70;;;;;;6311652;28;20049;-42
2022/01/09 00:57:15;;;;;;;;;;;20.70;42.50;;;;;;6315646;28;19966;-42
2022/01/09 01:00:17;;;;;;;;;;;20.60;42.50;;;;;;6317021;28;20013;-42
2022/01/09 01:03:19;;;;;;;;;;;20.50;42.40;;;;;;6315615;28;20029;-42
2022/01/09 01:06:20;;;;;;;;;;;21.10;42.60;;;;;;6319985;28;19928;-41
2022/01/09 01:09:23;;;;;;;;;;;20.50;42.40;;;;;;6320698;28;19923;-42
2022/01/09 01:12:26;;;;;;;;;;;21.00;42.70;;;;;;6310907;28;20039;-42
2022/01/09 01:15:28;;;;;;;;;;;20.40;42.40;;;;;;6319089;28;20008;-41
2022/01/09 01:18:29;;;;;;;;;;;20.50;42.40;;;;;;6317343;28;19986;-42
2022/01/09 01:21:32;;;;;;;;;;;20.50;42.40;;;;;;6317981;28;20022;-43
2022/01/09 01:24:36;;;;;;;;;;;20.50;42.40;;;;;;6322321;28;20014;-43
2022/01/09 01:27:38;;;;;;;;;;;20.80;42.40;;;;;;6318599;28;20022;-41
2022/01/09 01:30:41;;;;;;;;;;;20.60;42.40;;;;;;6315234;28;20018;-40
2022/01/09 01:33:43;;;;;;;;;;;20.50;42.20;;;;;;6325028;28;19963;-41
2022/01/09 01:36:44;;;;;;;;;;;20.50;42.30;;;;;;6317956;28;19959;-42
2022/01/09 01:39:46;;;;;;;;;;;20.60;42.30;;;;;;6323547;28;19954;-42
2022/01/09 01:42:47;;;;;;;;;;;20.50;42.50;;;;;;6324626;28;20014;-39
2022/01/09 01:45:49;;;;;;;;;;;20.50;42.30;;;;;;6316991;28;20016;-40
2022/01/09 01:48:51;;;;;;;;;;;20.50;42.30;;;;;;6319664;28;19951;-40
2022/01/09 01:51:52;;;;;;;;;;;20.60;42.40;;;;;;6318564;28;20046;-40
2022/01/09 01:54:55;;;;;;;;;;;20.50;42.30;;;;;;6320835;28;20799;-40
2022/01/09 01:57:57;;;;;;;;;;;20.90;42.40;;;;;;6316053;28;20518;-41
2022/01/09 02:00:58;;;;;;;;;;;20.50;42.20;;;;;;6313395;28;19984;-42
2022/01/09 02:04:00;;;;;;;;;;;20.80;42.10;;;;;;6307133;28;19928;-40
2022/01/09 02:07:02;;;;;;;;;;;20.50;42.20;;;;;;6318294;28;20020;-41
2022/01/09 02:10:07;;;;;;;;;;;20.50;42.10;;;;;;6295283;28;20014;-42
2022/01/09 02:13:09;;;;;;;;;;;20.50;42.10;;;;;;6299248;28;19988;-43
2022/01/09 02:16:16;;;;;;;;;;;20.70;42.20;;;;;;6318534;28;19986;-42
2022/01/09 02:19:19;;;;;;;;;;;21.20;42.40;;;;;;6311566;28;19931;-44
2022/01/09 02:22:23;;;;;;;;;;;20.70;42.10;;;;;;6308840;28;19988;-40
2022/01/09 02:25:24;;;;;;;;;;;20.50;42.20;;;;;;6307117;28;20028;-42
2022/01/09 02:28:26;;;;;;;;;;;20.90;42.30;;;;;;6309498;28;19928;-39
2022/01/09 02:31:28;;;;;;;;;;;20.50;42.10;;;;;;6306395;28;19923;-39
2022/01/09 02:34:32;;;;;;;;;;;20.50;42.10;;;;;;6302935;28;20253;-41
2022/01/09 02:37:34;;;;;;;;;;;20.50;42.00;;;;;;6313227;28;20258;-41
2022/01/09 02:40:35;;;;;;;;;;;20.70;42.20;;;;;;6302850;28;20167;-39
2022/01/09 02:43:37;;;;;;;;;;;20.70;42.20;;;;;;6302190;28;20326;-40
2022/01/09 02:46:52;;;;;;;;;;;20.90;42.20;;;;;;6306570;28;19924;-40
2022/01/09 02:49:55;;;;;;;;;;;20.80;42.20;;;;;;6306443;28;19923;-42
2022/01/09 02:52:59;;;;;;;;;;;20.80;42.20;;;;;;6310322;28;20019;-42
2022/01/09 02:56:03;;;;;;;;;;;20.50;42.10;;;;;;6306470;28;20799;-40
2022/01/09 02:59:06;;;;;;;;;;;20.40;41.90;;;;;;6292640;28;19963;-40
2022/01/09 03:02:07;;;;;;;;;;;20.60;42.10;;;;;;6308904;28;20042;-39
2022/01/09 03:05:09;;;;;;;;;;;20.50;42.10;;;;;;6289172;28;20038;-40
2022/01/09 03:08:12;;;;;;;;;;;20.50;42.00;;;;;;6303313;28;20375;-40
2022/01/09 03:11:13;;;;;;;;;;;20.50;42.00;;;;;;6302439;28;19931;-40
2022/01/09 03:14:14;;;;;;;;;;;20.60;42.20;;;;;;6306602;28;19935;-39
2022/01/09 03:17:16;;;;;;;;;;;20.50;42.10;;;;;;6301642;28;19928;-40
2022/01/09 03:20:22;;;;;;;;;;;20.60;42.00;;;;;;6311107;28;20026;-40
2022/01/09 03:23:24;;;;;;;;;;;20.80;42.10;;;;;;6310644;28;20014;-40
2022/01/09 03:26:25;;;;;;;;;;;20.90;42.20;;;;;;6313312;28;19947;-39
2022/01/09 03:29:27;;;;;;;;;;;20.70;42.30;;;;;;6316295;28;20483;-41
2022/01/09 03:32:28;;;;;;;;;;;20.60;42.10;;;;;;6310456;28;20406;-43
2022/01/09 03:35:31;;;;;;;;;;;20.60;42.20;;;;;;6316599;28;20612;-40
2022/01/09 03:38:32;;;;;;;;;;;20.50;41.90;;;;;;6298865;28;20643;-42
2022/01/09 03:41:35;;;;;;;;;;;20.50;42.00;;;;;;6317974;28;19994;-41
2022/01/09 03:44:36;;;;;;;;;;;21.00;42.20;;;;;;6317486;28;20249;-41
2022/01/09 03:47:38;;;;;;;;;;;20.70;42.20;;;;;;6313313;28;20546;-41
2022/01/09 03:50:41;;;;;;;;;;;21.20;42.30;;;;;;6315085;28;20240;-43
2022/01/09 03:53:43;;;;;;;;;;;21.20;42.40;;;;;;6319880;28;20276;-42
2022/01/09 03:56:44;;;;;;;;;;;20.50;42.00;;;;;;6315904;28;20612;-40
2022/01/09 03:59:46;;;;;;;;;;;20.30;41.80;;;;;;6313363;28;19928;-40
2022/01/09 04:02:48;;;;;;;;;;;20.50;42.00;;;;;;6304804;28;19931;-41
2022/01/09 04:05:50;;;;;;;;;;;20.60;42.10;;;;;;6295596;28;19924;-41
2022/01/09 04:08:52;;;;;;;;;;;20.60;42.00;;;;;;6305485;28;19923;-42
2022/01/09 04:12:01;;;;;;;;;;;20.80;42.10;;;;;;6306131;28;20268;-42
2022/01/09 04:15:04;;;;;;;;;;;20.50;41.90;;;;;;6292286;28;19996;-40
2022/01/09 04:18:06;;;;;;;;;;;20.40;41.80;;;;;;6311145;28;20122;-40
2022/01/09 04:21:07;;;;;;;;;;;20.90;42.10;;;;;;6318044;28;20410;-41
2022/01/09 04:24:09;;;;;;;;;;;20.80;42.10;;;;;;6313555;28;20037;-40
2022/01/09 04:27:11;;;;;;;;;;;20.40;41.90;;;;;;6292556;28;19928;-40
2022/01/09 04:30:13;;;;;;;;;;;20.40;41.90;;;;;;6312123;28;19993;-41
2022/01/09 04:33:14;;;;;;;;;;;20.40;41.80;;;;;;6309601;28;20128;-40
2022/01/09 04:36:16;;;;;;;;;;;20.50;41.90;;;;;;6296138;28;20028;-41
2022/01/09 04:39:18;;;;;;;;;;;20.50;41.90;;;;;;6311542;28;19966;-41
2022/01/09 04:42:25;;;;;;;;;;;20.80;42.10;;;;;;6309368;28;20250;-41
2022/01/09 04:45:28;;;;;;;;;;;20.70;42.00;;;;;;6309690;28;19924;-45
2022/01/09 04:48:30;;;;;;;;;;;21.20;42.20;;;;;;6309273;28;20536;-41
2022/01/09 04:51:31;;;;;;;;;;;20.90;42.10;;;;;;6310346;28;21020;-39
2022/01/09 04:54:33;;;;;;;;;;;20.50;42.00;;;;;;6312477;28;19924;-43
2022/01/09 04:57:34;;;;;;;;;;;20.40;41.80;;;;;;6294004;28;19991;-41
2022/01/09 05:00:36;;;;;;;;;;;20.70;42.00;;;;;;6311965;28;21097;-40
2022/01/09 05:03:38;;;;;;;;;;;20.60;42.10;;;;;;6302902;28;20001;-41
2022/01/09 05:06:40;;;;;;;;;;;20.60;41.70;;;;;;6307759;28;20250;-40
2022/01/09 05:09:42;;;;;;;;;;;20.40;41.90;;;;;;6307005;28;20049;-41
2022/01/09 05:12:45;;;;;;;;;;;20.50;42.00;;;;;;6309209;28;19948;-40
2022/01/09 05:15:47;;;;;;;;;;;20.40;41.90;;;;;;6320723;28;19927;-40
2022/01/09 05:18:53;;;;;;;;;;;20.90;42.20;;;;;;6305923;28;20327;-41
2022/01/09 05:21:56;;;;;;;;;;;21.20;42.30;;;;;;6309225;27;19962;-41
2022/01/09 05:24:58;;;;;;;;;;;20.50;41.80;;;;;;6305406;28;20658;-41
2022/01/09 05:27:59;;;;;;;;;;;20.50;41.90;;;;;;6308577;28;19923;-41
2022/01/09 05:31:01;;;;;;;;;;;20.80;42.10;;;;;;6309040;28;19986;-41
2022/01/09 05:34:03;;;;;;;;;;;20.30;41.80;;;;;;6307808;28;19930;-40
2022/01/09 05:37:05;;;;;;;;;;;20.90;42.20;;;;;;6307215;28;19928;-40
2022/01/09 05:40:07;;;;;;;;;;;20.40;41.80;;;;;;6306196;28;20428;-43
2022/01/09 05:43:08;;;;;;;;;;;20.60;41.80;;;;;;6308862;28;20811;-42
2022/01/09 05:46:11;;;;;;;;;;;20.40;41.90;;;;;;6306408;28;19958;-40
2022/01/09 05:49:13;;;;;;;;;;;20.40;41.80;;;;;;6305552;28;19924;-42
2022/01/09 05:52:14;;;;;;;;;;;20.80;41.90;;;;;;6301227;28;20054;-42
2022/01/09 05:55:16;;;;;;;;;;;20.40;41.90;;;;;;6304431;28;19927;-41
2022/01/09 05:58:18;;;;;;;;;;;20.50;41.90;;;;;;6309775;28;19978;-41
2022/01/09 06:01:21;;;;;;;;;;;20.80;42.10;;;;;;6309236;28;19930;-41
2022/01/09 06:04:23;;;;;;;;;;;20.40;41.70;;;;;;6285623;28;20462;-43
2022/01/09 06:07:24;;;;;;;;;;;20.60;42.00;;;;;;6298250;28;20067;-40
2022/01/09 06:10:26;;;;;;;;;;;20.90;42.10;;;;;;6305793;28;20548;-41
2022/01/09 06:13:27;;;;;;;;;;;20.80;42.10;;;;;;6303701;28;19966;-41
2022/01/09 06:16:29;;;;;;;;;;;20.60;42.10;;;;;;6307364;28;19993;-42
2022/01/09 06:19:30;;;;;;;;;;;20.80;42.10;;;;;;6305278;28;20298;-40
2022/01/09 06:22:32;;;;;;;;;;;21.10;42.20;;;;;;6306365;28;20588;-40
2022/01/09 06:25:33;;;;;;;;;;;20.70;42.10;;;;;;6308149;28;19963;-42
2022/01/09 06:28:35;;;;;;;;;;;20.50;41.80;;;;;;6308175;28;20068;-40
2022/01/09 06:31:37;;;;;;;;;;;20.90;42.10;;;;;;6304091;28;20268;-41
2022/01/09 06:34:41;;;;;;;;;;;20.40;41.90;;;;;;6302657;27;20524;-42
2022/01/09 06:37:43;;;;;;;;;;;20.80;42.00;;;;;;6308975;28;20038;-40
2022/01/09 06:40:45;;;;;;;;;;;20.80;42.10;;;;;;6305140;28;20469;-42
2022/01/09 06:43:47;;;;;;;;;;;20.30;41.80;;;;;;6305040;28;19970;-41
2022/01/09 06:46:49;;;;;;;;;;;20.80;41.90;;;;;;6301782;28;20757;-40
2022/01/09 06:49:51;;;;;;;;;;;20.70;42.10;;;;;;6294975;28;19932;-42
2022/01/09 06:52:52;;;;;;;;;;;20.80;42.10;;;;;;6299208;28;20026;-41
2022/01/09 06:55:54;;;;;;;;;;;20.80;42.10;;;;;;6286913;28;19934;-41
2022/01/09 06:58:55;;;;;;;;;;;20.40;41.80;;;;;;6301784;28;20057;-39
2022/01/09 07:01:57;;;;;;;;;;;20.60;41.90;;;;;;6283136;28;20352;-41
2022/01/09 07:04:58;;;;;;;;;;;20.40;41.90;;;;;;6282107;28;20065;-44
2022/01/09 07:07:59;;;;;;;;;;;20.70;42.10;;;;;;6282963;28;20041;-40
2022/01/09 07:11:02;;;;;;;;;;;20.50;41.90;;;;;;6293657;28;19931;-41
2022/01/09 07:14:05;;;;;;;;;;;20.80;42.00;;;;;;6258920;28;20431;-41
2022/01/09 07:17:07;;;;;;;;;;;20.30;41.80;;;;;;6285534;28;20081;-42
2022/01/09 07:20:11;;;;;;;;;;;20.80;42.00;;;;;;6283288;28;19928;-41
2022/01/09 07:23:12;;;;;;;;;;;20.90;42.00;;;;;;6288439;28;20418;-41
2022/01/09 07:26:15;;;;;;;;;;;20.50;41.90;;;;;;6281950;28;19923;-43
2022/01/09 07:29:16;;;;;;;;;;;20.50;41.90;;;;;;6286733;28;20037;-41
2022/01/09 07:32:18;;;;;;;;;;;20.50;42.00;;;;;;6285304;28;20330;-43
2022/01/09 07:35:20;;;;;;;;;;;20.40;41.90;;;;;;6287753;28;19923;-43
2022/01/09 07:38:22;;;;;;;;;;;20.80;42.10;;;;;;6290870;28;20034;-40
2022/01/09 07:41:24;;;;;;;;;;;20.90;42.10;;;;;;6267799;28;20406;-40
2022/01/09 07:44:27;;;;;;;;;;;20.80;42.00;;;;;;6279026;28;20043;-42
2022/01/09 07:47:30;;;;;;;;;;;20.90;42.10;;;;;;6279047;28;20164;-42
2022/01/09 07:50:32;;;;;;;;;;;20.80;42.10;;;;;;6280061;28;19927;-40
2022/01/09 07:53:33;;;;;;;;;;;20.90;41.90;;;;;;6278072;28;19935;-40
2022/01/09 07:56:36;;;;;;;;;;;20.70;42.00;;;;;;6288459;28;19973;-40
2022/01/09 07:59:37;;;;;;;;;;;20.70;41.90;;;;;;6286614;28;20348;-40
2022/01/09 08:02:40;;;;;;;;;;;20.40;41.80;;;;;;6285530;28;20500;-41
2022/01/09 08:05:42;;;;;;;;;;;21.00;42.10;;;;;;6248437;28;19970;-40
2022/01/09 08:08:43;;;;;;;;;;;20.80;41.90;;;;;;6285250;28;20067;-40
2022/01/09 08:11:45;;;;;;;;;;;20.40;41.90;;;;;;6290543;28;20342;-42
2022/01/09 08:14:46;;;;;;;;;;;20.30;42.40;;;;;;6286715;28;20313;-40
2022/01/09 08:17:49;;;;;;;;;;;20.40;41.90;;;;;;6284031;28;20340;-40
2022/01/09 08:20:51;;;;;;;;;;;20.80;42.10;;;;;;6279159;28;19950;-40
2022/01/09 08:23:52;;;;;;;;;;;20.40;41.90;;;;;;6280638;28;19924;-40
2022/01/09 08:26:54;;;;;;;;;;;20.40;41.90;;;;;;6270230;28;19923;-40
2022/01/09 08:29:55;;;;;;;;;;;20.30;41.70;;;;;;6270276;28;19924;-42
2022/01/09 08:32:57;;;;;;;;;;;20.80;42.10;;;;;;6284895;28;20159;-40
2022/01/09 08:35:58;;;;;;;;;;;20.90;42.10;;;;;;6288867;28;20450;-41
2022/01/09 08:38:59;;;;;;;;;;;20.70;42.00;;;;;;6285959;28;20384;-40
2022/01/09 08:42:01;;;;;;;;;;;20.80;42.00;;;;;;6288423;28;19927;-40
2022/01/09 08:45:03;;;;;;;;;;;20.50;41.80;;;;;;6283953;28;19924;-42
2022/01/09 08:48:04;;;;;;;;;;;20.30;41.80;;;;;;6284219;28;20347;-41
2022/01/09 08:51:07;;;;;;;;;;;20.30;41.80;;;;;;6276352;28;19991;-41
2022/01/09 08:54:10;;;;;;;;;;;20.50;41.80;;;;;;6276414;28;19932;-41
2022/01/09 08:57:12;;;;;;;;;;;20.40;41.80;;;;;;6277927;28;20041;-40
2022/01/09 09:00:14;;;;;;;;;;;20.80;42.00;;;;;;6275741;28;20310;-41
2022/01/09 09:03:15;;;;;;;;;;;20.50;41.80;;;;;;6280401;28;19924;-41
2022/01/09 09:06:17;;;;;;;;;;;20.80;42.10;;;;;;6284691;28;19928;-41
2022/01/09 09:09:18;;;;;;;;;;;20.90;42.00;;;;;;6263355;28;20323;-41
2022/01/09 09:12:21;;;;;;;;;;;20.50;41.80;;;;;;6276765;28;20038;-41
2022/01/09 09:15:23;;;;;;;;;;;20.40;41.70;;;;;;6285822;28;20340;-42
2022/01/09 09:18:27;;;;;;;;;;;20.80;41.80;;;;;;6281673;28;20329;-40
2022/01/09 09:21:28;;;;;;;;;;;20.50;41.60;;;;;;6289088;28;20308;-42
2022/01/09 09:24:30;;;;;;;;;;;20.60;41.70;;;;;;6287782;28;20372;-41
2022/01/09 09:27:32;;;;;;;;;;;20.70;41.60;;;;;;6284433;28;20207;-41
2022/01/09 09:30:33;;;;;;;;;;;20.60;41.30;;;;;;6282886;28;19927;-41
2022/01/09 09:33:35;;;;;;;;;;;20.70;41.30;;;;;;6286013;28;20712;-40
2022/01/09 09:36:36;;;;;;;;;;;21.10;41.50;;;;;;6286927;28;21235;-40
2022/01/09 09:39:38;;;;;;;;;;;20.90;41.40;;;;;;6272305;28;20105;-41
2022/01/09 09:42:40;;;;;;;;;;;20.80;41.20;;;;;;6278484;28;20410;-41
2022/01/09 09:45:41;;;;;;;;;;;21.10;41.30;;;;;;6262704;28;20380;-42
2022/01/09 09:48:42;;;;;;;;;;;21.20;41.40;;;;;;6283020;28;20075;-41
2022/01/09 09:51:43;;;;;;;;;;;20.80;41.20;;;;;;6285557;28;20265;-40
2022/01/09 09:54:45;;;;;;;;;;;20.70;41.20;;;;;;6284118;28;20173;-43
2022/01/09 09:57:47;;;;;;;;;;;21.10;41.30;;;;;;6280402;28;20490;-40
2022/01/09 10:00:52;;;;;;;;;;;20.80;41.10;;;;;;6284694;28;19927;-41
2022/01/09 10:03:55;;;;;;;;;;;21.10;41.20;;;;;;6274226;28;20024;-41
2022/01/09 10:06:56;;;;;;;;;;;21.20;41.30;;;;;;6264503;28;19924;-39
2022/01/09 10:09:59;;;;;;;;;;;21.20;41.40;;;;;;6276335;27;19934;-41
2022/01/09 10:13:09;;;;;;;;;;;21.60;41.60;;;;;;6266429;28;20344;-40
2022/01/09 10:16:11;;;;;;;;;;;21.00;41.20;;;;;;6277324;28;20042;-41
2022/01/09 10:19:12;;;;;;;;;;;20.90;41.10;;;;;;6284924;28;20462;-42
2022/01/09 10:22:21;;;;;;;;;;;21.30;41.30;;;;;;6286310;28;20066;-40
2022/01/09 10:25:26;;;;;;;;;;;20.90;41.00;;;;;;6286178;28;19927;-41
2022/01/09 10:28:36;;;;;;;;;;;21.20;41.10;;;;;;6283326;28;20475;-40
2022/01/09 10:31:42;;;;;;;;;;;21.00;41.00;;;;;;6260323;28;19949;-40
2022/01/09 10:35:02;;;;;;;;;;;21.40;41.10;;;;;;6262366;28;20479;-40
2022/01/09 10:38:05;;;;;;;;;;;21.70;41.30;;;;;;6283387;28;19981;-40
2022/01/09 10:41:07;;;;;;;;;;;21.00;40.80;;;;;;6280268;28;20407;-40
2022/01/09 10:44:13;;;;;;;;;;;21.20;41.00;;;;;;6276263;28;20793;-40
2022/01/09 10:47:16;;;;;;;;;;;21.50;41.00;;;;;;6281363;28;20050;-40
2022/01/09 10:50:26;;;;;;;;;;;21.10;40.90;;;;;;6282687;28;20958;-41
2022/01/09 10:53:29;;;;;;;;;;;21.10;40.70;;;;;;6267606;28;20661;-41
2022/01/09 10:56:30;;;;;;;;;;;21.10;40.70;;;;;;6265824;28;19923;-41
2022/01/09 10:59:32;;;;;;;;;;;21.40;41.00;;;;;;6284572;28;20516;-40
2022/01/09 11:02:35;;;;;;;;;;;21.10;40.70;;;;;;6278510;28;20023;-40
2022/01/09 11:05:38;;;;;;;;;;;21.60;40.90;;;;;;6274793;28;20245;-40
2022/01/09 11:08:39;;;;;;;;;;;21.40;40.70;;;;;;6252429;28;20260;-41
2022/01/09 11:11:43;;;;;;;;;;;21.20;40.70;;;;;;6263013;28;20419;-41
2022/01/09 11:14:47;;;;;;;;;;;21.20;40.70;;;;;;6286286;28;20307;-41
2022/01/09 11:17:49;;;;;;;;;;;21.20;40.70;;;;;;6282659;28;19923;-40
2022/01/09 11:20:51;;;;;;;;;;;21.40;40.70;;;;;;6286008;27;20655;-41
2022/01/09 11:23:57;;;;;;;;;;;21.20;40.70;;;;;;6286500;28;19927;-40
2022/01/09 11:27:01;;;;;;;;;;;21.20;40.60;;;;;;6284365;28;20226;-44
2022/01/09 11:30:05;;;;;;;;;;;21.50;40.70;;;;;;6285678;28;20210;-39
2022/01/09 11:33:13;;;;;;;;;;;21.50;40.70;;;;;;6284973;28;20079;-40
2022/01/09 11:36:18;;;;;;;;;;;21.30;40.60;;;;;;6281203;28;19924;-41
2022/01/09 11:39:23;;;;;;;;;;;21.90;40.80;;;;;;6276332;28;19924;-40
2022/01/09 11:42:24;;;;;;;;;;;21.70;40.80;;;;;;6288013;28;20774;-41
2022/01/09 11:45:38;;;;;;;;;;;21.60;40.80;;;;;;6277564;28;20118;-40
2022/01/09 11:48:41;;;;;;;;;;;21.70;40.70;;;;;;6263998;28;19941;-40
2022/01/09 11:51:49;;;;;;;;;;;21.40;40.50;;;;;;6275666;28;20668;-40
2022/01/09 11:54:52;;;;;;;;;;;21.90;40.80;;;;;;6283034;28;20062;-39
2022/01/09 11:58:00;;;;;;;;;;;21.50;40.60;;;;;;6280577;28;20199;-41
2022/01/09 12:01:03;;;;;;;;;;;21.70;40.70;;;;;;6287961;28;20195;-42
2022/01/09 12:04:16;;;;;;;;;;;21.50;40.50;;;;;;6279187;28;20109;-40
2022/01/09 12:07:19;;;;;;;;;;;21.50;40.50;;;;;;6270646;28;19924;-41
2022/01/09 12:10:35;;;;;;;;;;;21.80;40.60;;;;;;6262990;28;20057;-41
2022/01/09 12:13:39;;;;;;;;;;;21.70;40.60;;;;;;6264086;28;20008;-40
2022/01/09 12:16:45;;;;;;;;;;;21.50;40.40;;;;;;6283429;28;20469;-42
2022/01/09 12:19:55;;;;;;;;;;;21.60;40.50;;;;;;6284032;28;19927;-42
2022/01/09 12:23:05;;;;;;;;;;;21.70;40.60;;;;;;6287474;28;20218;-42
2022/01/09 12:26:25;;;;;;;;;;;21.80;40.60;;;;;;6283317;28;20866;-41
2022/01/09 12:29:41;;;;;;;;;;;21.50;40.40;;;;;;6282889;28;19934;-40
2022/01/09 12:32:44;;;;;;;;;;;21.70;40.50;;;;;;6274586;28;20233;-41
2022/01/09 12:35:46;;;;;;;;;;;21.50;40.40;;;;;;6283638;28;20125;-40
2022/01/09 12:38:50;;;;;;;;;;;21.80;40.60;;;;;;6289916;28;20680;-40
2022/01/09 12:41:56;;;;;;;;;;;21.90;40.50;;;;;;6269631;28;20064;-41
2022/01/09 12:44:58;;;;;;;;;;;21.50;40.30;;;;;;6284838;28;20117;-41
2022/01/09 12:48:00;;;;;;;;;;;21.90;40.60;;;;;;6285971;28;20046;-40
2022/01/09 12:51:07;;;;;;;;;;;21.80;40.50;;;;;;6286560;28;20308;-41
2022/01/09 12:54:09;;;;;;;;;;;22.00;40.50;;;;;;6260029;28;20390;-41
2022/01/09 12:57:11;;;;;;;;;;;22.00;40.60;;;;;;6277513;28;19931;-41
2022/01/09 13:00:14;;;;;;;;;;;21.60;40.40;;;;;;6287134;28;20031;-40
2022/01/09 13:03:21;;;;;;;;;;;21.80;40.40;;;;;;6278763;28;19928;-44
2022/01/09 13:06:25;;;;;;;;;;;22.10;40.60;;;;;;6279572;28;20377;-42
2022/01/09 13:09:31;;;;;;;;;;;21.90;40.50;;;;;;6258216;28;20450;-41
2022/01/09 13:12:32;;;;;;;;;;;22.20;40.60;;;;;;6269778;28;20046;-43
2022/01/09 13:15:36;;;;;;;;;;;21.90;40.50;;;;;;6289017;28;19989;-40
2022/01/09 13:18:39;;;;;;;;;;;21.60;40.20;;;;;;6284825;28;20713;-40
2022/01/09 13:21:41;;;;;;;;;;;22.10;40.60;;;;;;6265161;28;20456;-40
2022/01/09 13:24:43;;;;;;;;;;;21.80;40.40;;;;;;6288111;28;20092;-40
2022/01/09 13:27:45;;;;;;;;;;;22.10;40.60;;;;;;6286297;28;19972;-41
2022/01/09 13:30:47;;;;;;;;;;;21.70;40.40;;;;;;6283600;28;20677;-41
2022/01/09 13:33:51;;;;;;;;;;;22.10;40.60;;;;;;6276492;28;20204;-42
2022/01/09 13:36:52;;;;;;;;;;;21.60;40.30;;;;;;6278323;28;20349;-41
2022/01/09 13:39:58;;;;;;;;;;;22.00;40.50;;;;;;6270946;28;20010;-41
2022/01/09 13:43:00;;;;;;;;;;;22.20;40.60;;;;;;6275412;28;20213;-41
2022/01/09 13:46:09;;;;;;;;;;;22.10;40.60;;;;;;6278749;28;20073;-42
2022/01/09 13:49:12;;;;;;;;;;;21.80;40.40;;;;;;6271216;28;20125;-41
2022/01/09 13:52:14;;;;;;;;;;;22.10;40.50;;;;;;6246427;28;20232;-42
2022/01/09 13:55:18;;;;;;;;;;;21.70;40.30;;;;;;6269033;28;20746;-40
2022/01/09 13:58:20;;;;;;;;;;;21.70;40.30;;;;;;6256930;28;20204;-41
2022/01/09 14:01:36;;;;;;;;;;;21.70;40.30;;;;;;6277179;28;20370;-41
2022/01/09 14:04:38;;;;;;;;;;;21.80;40.30;;;;;;6261550;28;20102;-41
2022/01/09 14:07:44;;;;;;;;;;;21.90;40.40;;;;;;6273799;28;19951;-40
2022/01/09 14:10:49;;;;;;;;;;;22.10;40.40;;;;;;6277260;28;20843;-41
2022/01/09 14:13:51;;;;;;;;;;;22.00;40.40;;;;;;6281024;28;19927;-40
2022/01/09 14:16:52;;;;;;;;;;;22.20;40.50;;;;;;6281125;28;20356;-41
2022/01/09 14:19:55;;;;;;;;;;;21.70;40.30;;;;;;6275091;28;20336;-42
2022/01/09 14:22:57;;;;;;;;;;;22.30;40.60;;;;;;6282090;28;20841;-41
2022/01/09 14:26:04;;;;;;;;;;;21.80;40.30;;;;;;6272070;28;20803;-40
2022/01/09 14:29:06;;;;;;;;;;;22.20;40.50;;;;;;6256163;28;20370;-43
2022/01/09 14:32:16;;;;;;;;;;;21.80;40.30;;;;;;6278489;28;20935;-42
2022/01/09 14:35:25;;;;;;;;;;;22.30;40.60;;;;;;6273588;28;20428;-41
2022/01/09 14:38:28;;;;;;;;;;;21.90;40.30;;;;;;6258095;28;20056;-41
2022/01/09 14:41:30;;;;;;;;;;;21.80;40.30;;;;;;6253295;28;20338;-42
2022/01/09 14:44:31;;;;;;;;;;;21.90;40.30;;;;;;6272154;28;20736;-42
2022/01/09 14:47:33;;;;;;;;;;;22.20;40.60;;;;;;6271334;28;20064;-42
2022/01/09 14:50:35;;;;;;;;;;;22.30;40.60;;;;;;6263609;28;20809;-41
2022/01/09 14:53:38;;;;;;;;;;;21.80;40.30;;;;;;6254829;28;19998;-42
2022/01/09 14:56:39;;;;;;;;;;;21.90;40.30;;;;;;6278842;28;20646;-42
2022/01/09 14:59:41;;;;;;;;;;;21.90;40.30;;;;;;6275838;28;20030;-40
2022/01/09 15:02:42;;;;;;;;;;;22.20;40.50;;;;;;6272298;28;20713;-43
2022/01/09 15:05:45;;;;;;;;;;;22.20;40.50;;;;;;6270570;28;20089;-41
2022/01/09 15:08:47;;;;;;;;;;;21.80;40.30;;;;;;6271619;28;19974;-40
2022/01/09 15:11:49;;;;;;;;;;;22.10;40.50;;;;;;6277859;28;20051;-40
2022/01/09 15:14:53;;;;;;;;;;;22.20;40.50;;;;;;6278096;28;19931;-40
2022/01/09 15:17:54;;;;;;;;;;;22.10;40.50;;;;;;6269206;28;20337;-41
2022/01/09 15:20:57;;;;;;;;;;;21.90;40.30;;;;;;6271747;28;19946;-44
2022/01/09 15:23:59;;;;;;;;;;;22.10;40.40;;;;;;6276854;28;19924;-42
2022/01/09 15:27:00;;;;;;;;;;;21.80;40.30;;;;;;6276017;28;20183;-41
2022/01/09 15:30:04;;;;;;;;;;;22.30;40.60;;;;;;6273948;28;20404;-41
2022/01/09 15:33:06;;;;;;;;;;;22.00;40.40;;;;;;6269533;28;20038;-41
2022/01/09 15:36:07;;;;;;;;;;;21.90;40.30;;;;;;6269059;28;20448;-42
2022/01/09 15:39:09;;;;;;;;;;;22.20;40.50;;;;;;6270622;28;19928;-40
2022/01/09 15:42:11;;;;;;;;;;;22.40;40.60;;;;;;6281270;28;20961;-40
2022/01/09 15:45:12;;;;;;;;;;;22.10;40.50;;;;;;6275792;28;19955;-39
2022/01/09 15:48:14;;;;;;;;;;;21.80;40.30;;;;;;6275536;28;20248;-41
2022/01/09 15:51:18;;;;;;;;;;;21.90;40.40;;;;;;6263110;28;19934;-40
2022/01/09 15:54:19;;;;;;;;;;;21.90;40.30;;;;;;6275661;28;19923;-41
2022/01/09 15:57:21;;;;;;;;;;;22.30;40.50;;;;;;6272559;28;20517;-41
2022/01/09 16:00:22;;;;;;;;;;;22.20;40.50;;;;;;6267464;28;20166;-44
2022/01/09 16:03:23;;;;;;;;;;;21.90;40.40;;;;;;6268677;28;20153;-40
2022/01/09 16:06:28;;;;;;;;;;;22.40;40.60;;;;;;6268143;28;20146;-41
2022/01/09 16:09:29;;;;;;;;;;;22.00;40.40;;;;;;6281905;28;19923;-41
2022/01/09 16:12:31;;;;;;;;;;;22.40;40.70;;;;;;6252005;28;20967;-42
2022/01/09 16:15:32;;;;;;;;;;;22.10;40.40;;;;;;6280715;28;19923;-40
2022/01/09 16:18:33;;;;;;;;;;;22.20;40.60;;;;;;6270811;28;20084;-40
2022/01/09 16:21:36;;;;;;;;;;;22.20;40.50;;;;;;6276582;28;19924;-41
2022/01/09 16:24:38;;;;;;;;;;;22.40;40.60;;;;;;6280936;28;20304;-41
2022/01/09 16:27:41;;;;;;;;;;;21.90;40.40;;;;;;6276534;28;20159;-41
2022/01/09 16:30:45;;;;;;;;;;;22.50;40.70;;;;;;6277879;28;20027;-40
2022/01/09 16:33:47;;;;;;;;;;;22.00;40.50;;;;;;6276651;28;20403;-42
2022/01/09 16:36:49;;;;;;;;;;;21.80;40.30;;;;;;6254385;28;20450;-42
2022/01/09 16:39:52;;;;;;;;;;;21.90;40.30;;;;;;6276170;28;20461;-41
2022/01/09 16:42:53;;;;;;;;;;;22.00;40.40;;;;;;6274564;28;19948;-41
2022/01/09 16:46:01;;;;;;;;;;;22.30;40.60;;;;;;6270846;28;20156;-41
2022/01/09 16:49:02;;;;;;;;;;;22.30;40.60;;;;;;6272018;28;20265;-41
2022/01/09 16:52:04;;;;;;;;;;;22.20;40.60;;;;;;6273059;28;20011;-41
2022/01/09 16:55:06;;;;;;;;;;;22.10;40.80;;;;;;6279720;28;20974;-42
2022/01/09 16:58:07;;;;;;;;;;;22.10;40.50;;;;;;6276058;28;20042;-41
2022/01/09 17:01:09;;;;;;;;;;;22.40;40.70;;;;;;6273648;28;20180;-41
2022/01/09 17:04:10;;;;;;;;;;;22.00;40.50;;;;;;6270051;28;20001;-42
2022/01/09 17:07:12;;;;;;;;;;;22.30;40.70;;;;;;6270578;28;20364;-41
2022/01/09 17:10:13;;;;;;;;;;;22.10;40.60;;;;;;6251174;28;19935;-41
2022/01/09 17:13:15;;;;;;;;;;;22.20;40.70;;;;;;6274715;28;19934;-41
2022/01/09 17:16:16;;;;;;;;;;;22.30;40.80;;;;;;6275297;28;19951;-41
2022/01/09 17:19:19;;;;;;;;;;;22.00;40.60;;;;;;6277424;28;20125;-42
2022/01/09 17:22:21;;;;;;;;;;;21.90;40.60;;;;;;6254948;28;19928;-41
2022/01/09 17:25:22;;;;;;;;;;;21.90;40.70;;;;;;6275943;28;20025;-40
2022/01/09 17:28:24;;;;;;;;;;;22.00;40.80;;;;;;6280771;28;19923;-40
2022/01/09 17:31:25;;;;;;;;;;;21.80;40.70;;;;;;6273292;28;19928;-40
2022/01/09 17:34:26;;;;;;;;;;;22.00;40.80;;;;;;6261986;28;19927;-41
2022/01/09 17:37:28;;;;;;;;;;;21.80;40.90;;;;;;6272313;28;20042;-40
2022/01/09 17:40:30;;;;;;;;;;;21.80;40.80;;;;;;6268209;28;20200;-42
2022/01/09 17:43:31;;;;;;;;;;;22.20;41.10;;;;;;6274983;28;20039;-41